Time;durP1;ratioP1;P1;durP2;ratioP2;P2;SDS_P1;SDS_P2;PMS_P1;PMS_P2;Temp;Humidity;BMP_temperature;BMP_pressure;BME280_temperature;BME280_humidity;BME280_pressure;Samples;Min_cycle;Max_cycle;Signal;HPM_P1;HPM_P2
2023/04/02 00:02:44;;;;;;;1.13;0.90;;;6.70;99.90;;;;;;5041193;28;20433;-52
2023/04/02 00:05:33;;;;;;;1.30;0.80;;;6.80;99.90;;;;;;5019874;28;20520;-51
2023/04/02 00:08:03;;;;;;;2.33;1.30;;;6.70;99.90;;;;;;5038419;28;20713;-54
2023/04/02 00:10:32;;;;;;;1.53;1.40;;;6.70;99.90;;;;;;5040215;28;20789;-53
2023/04/02 00:13:02;;;;;;;1.90;1.40;;;6.70;99.90;;;;;;5041016;28;20516;-53
2023/04/02 00:15:30;;;;;;;3.90;1.87;;;6.40;99.90;;;;;;5041872;28;20480;-54
2023/04/02 00:17:57;;;;;;;2.60;1.90;;;6.20;99.90;;;;;;5039865;28;20477;-51
2023/04/02 00:20:25;;;;;;;2.00;1.20;;;6.20;99.90;;;;;;5037166;28;20539;-53
2023/04/02 00:22:52;;;;;;;1.30;0.93;;;6.50;99.90;;;;;;5038843;28;20449;-52
2023/04/02 00:25:20;;;;;;;5.20;1.80;;;6.50;99.90;;;;;;5038398;28;20454;-51
2023/04/02 00:27:48;;;;;;;2.73;1.83;;;6.20;99.90;;;;;;5039599;28;20528;-51
2023/04/02 00:30:16;;;;;;;3.77;2.20;;;6.00;99.90;;;;;;5037660;28;20500;-53
2023/04/02 00:32:43;;;;;;;1.67;1.13;;;6.30;99.90;;;;;;5040789;28;20915;-53
2023/04/02 00:35:13;;;;;;;2.27;1.20;;;6.50;99.90;;;;;;5040359;28;20881;-51
2023/04/02 00:37:41;;;;;;;5.27;1.47;;;6.60;99.90;;;;;;5046159;28;20505;-51
2023/04/02 00:40:15;;;;;;;1.67;1.20;;;6.70;99.90;;;;;;5046074;28;20473;-52
2023/04/02 00:42:45;;;;;;;3.70;2.40;;;6.70;99.90;;;;;;5043744;28;20445;-52
2023/04/02 00:45:21;;;;;;;2.43;2.03;;;6.60;99.90;;;;;;5044339;28;20478;-52
2023/04/02 00:47:49;;;;;;;2.83;1.90;;;6.60;99.90;;;;;;5047648;28;20503;-52
2023/04/02 00:50:23;;;;;;;1.70;1.40;;;6.40;99.90;;;;;;5036241;28;20462;-53
2023/04/02 00:52:52;;;;;;;3.80;1.57;;;6.50;99.90;;;;;;5037004;28;20504;-51
2023/04/02 00:55:23;;;;;;;2.53;1.13;;;6.70;99.90;;;;;;5032768;28;20917;-51
2023/04/02 00:57:52;;;;;;;1.73;0.90;;;6.70;99.90;;;;;;5037025;28;20952;-51
2023/04/02 01:00:22;;;;;;;3.77;1.43;;;6.80;99.90;;;;;;5036113;28;20502;-51
2023/04/02 01:03:27;;;;;;;1.20;1.03;;;6.90;99.90;;;;;;5036557;28;20641;-52
2023/04/02 01:06:01;;;;;;;1.40;0.77;;;6.80;99.90;;;;;;5035506;28;20461;-51
2023/04/02 01:08:38;;;;;;;2.07;1.20;;;6.80;99.90;;;;;;5032161;28;20473;-51
2023/04/02 01:11:14;;;;;;;2.40;1.80;;;6.80;99.90;;;;;;5036722;28;20528;-52
2023/04/02 01:13:53;;;;;;;3.77;2.37;;;6.90;99.90;;;;;;5036511;28;20452;-52
2023/04/02 01:16:30;;;;;;;3.37;2.13;;;6.80;99.90;;;;;;5035526;28;20537;-51
2023/04/02 01:19:09;;;;;;;2.23;1.80;;;6.80;99.90;;;;;;5036187;28;20545;-51
2023/04/02 01:21:51;;;;;;;2.83;1.70;;;6.80;99.90;;;;;;5036413;28;20733;-51
2023/04/02 01:24:20;;;;;;;1.60;1.27;;;6.70;99.90;;;;;;5036153;28;21014;-52
2023/04/02 01:26:52;;;;;;;1.93;1.23;;;6.80;99.90;;;;;;5035863;28;20925;-51
2023/04/02 01:29:23;;;;;;;2.20;1.10;;;6.80;99.90;;;;;;5036442;28;20466;-51
2023/04/02 01:31:52;;;;;;;1.70;1.27;;;6.90;99.90;;;;;;5036525;28;20450;-51
2023/04/02 01:34:23;;;;;;;2.53;1.73;;;6.80;99.90;;;;;;5036405;28;20438;-51
2023/04/02 01:37:05;;;;;;;2.00;1.73;;;6.90;99.90;;;;;;5036009;28;20533;-52
2023/04/02 01:39:42;;;;;;;2.33;1.77;;;6.90;99.90;;;;;;5036644;28;20498;-52
2023/04/02 01:42:18;;;;;;;2.73;1.70;;;6.80;99.90;;;;;;5036031;28;20541;-51
2023/04/02 01:44:48;;;;;;;3.43;1.67;;;6.60;99.90;;;;;;5036705;28;20575;-50
2023/04/02 01:47:18;;;;;;;2.90;1.67;;;6.70;99.90;;;;;;5035879;28;20504;-51
2023/04/02 01:49:47;;;;;;;2.97;1.90;;;6.70;99.90;;;;;;5036286;28;20502;-52
2023/04/02 01:52:17;;;;;;;2.30;1.77;;;6.90;99.90;;;;;;5034647;28;20977;-52
2023/04/02 01:54:46;;;;;;;2.57;1.43;;;6.80;99.90;;;;;;5036170;28;20542;-51
2023/04/02 01:57:13;;;;;;;2.33;1.40;;;6.80;99.90;;;;;;5035916;28;20889;-51
2023/04/02 01:59:40;;;;;;;4.40;1.33;;;6.80;99.90;;;;;;5035857;28;20516;-51
2023/04/02 02:02:12;;;;;;;2.97;1.50;;;6.90;99.90;;;;;;5035087;28;20508;-52
2023/04/02 02:04:40;;;;;;;2.73;1.30;;;6.90;99.90;;;;;;5034901;28;20475;-51
2023/04/02 02:07:14;;;;;;;1.50;0.80;;;6.90;99.90;;;;;;5035685;28;20865;-52
2023/04/02 02:09:42;;;;;;;1.53;1.00;;;6.80;99.90;;;;;;5035436;28;20497;-51
2023/04/02 02:12:13;;;;;;;2.27;1.70;;;6.80;99.90;;;;;;5035113;28;20493;-51
2023/04/02 02:14:45;;;;;;;3.73;1.37;;;6.80;99.90;;;;;;5035135;28;20525;-52
2023/04/02 02:17:16;;;;;;;1.90;1.10;;;6.60;99.90;;;;;;5035978;28;20488;-52
2023/04/02 02:19:45;;;;;;;1.63;1.20;;;6.40;99.90;;;;;;5035202;28;20516;-51
2023/04/02 02:22:19;;;;;;;4.50;1.40;;;6.40;99.90;;;;;;5035652;28;20453;-52
2023/04/02 02:24:46;;;;;;;1.73;1.50;;;6.50;99.90;;;;;;5034677;28;20498;-51
2023/04/02 02:27:45;;;;;;;1.67;1.30;;;6.70;99.90;;;;;;5034770;28;20474;-51
2023/04/02 02:30:17;;;;;;;4.37;2.23;;;6.70;99.90;;;;;;5035142;28;20462;-52
2023/04/02 02:32:53;;;;;;;3.60;2.40;;;6.90;99.90;;;;;;5034954;28;20442;-51
2023/04/02 02:35:25;;;;;;;1.97;1.70;;;6.90;99.90;;;;;;5035363;28;21001;-51
2023/04/02 02:37:57;;;;;;;3.17;1.70;;;6.90;99.90;;;;;;5035774;28;20438;-51
2023/04/02 02:40:29;;;;;;;1.80;1.07;;;6.90;99.90;;;;;;5035537;28;20545;-51
2023/04/02 02:43:00;;;;;;;3.83;1.30;;;6.50;99.90;;;;;;5034777;28;20474;-52
2023/04/02 02:45:31;;;;;;;2.80;1.53;;;6.40;99.90;;;;;;5034207;28;20570;-52
2023/04/02 02:48:01;;;;;;;9.10;2.70;;;6.30;99.90;;;;;;5033201;28;20508;-51
2023/04/02 02:50:31;;;;;;;3.00;2.47;;;6.30;99.90;;;;;;5032694;28;20446;-51
2023/04/02 02:52:59;;;;;;;3.00;1.77;;;6.30;99.90;;;;;;5032934;28;20461;-51
2023/04/02 02:55:30;;;;;;;2.30;1.57;;;6.20;99.90;;;;;;5033160;28;20439;-52
2023/04/02 02:58:03;;;;;;;4.00;2.90;;;6.20;99.90;;;;;;5033441;28;20992;-51
2023/04/02 03:00:31;;;;;;;2.23;1.80;;;6.40;99.90;;;;;;5034378;28;20455;-52
2023/04/02 03:03:00;;;;;;;1.37;0.90;;;6.50;99.90;;;;;;5034546;28;20704;-52
2023/04/02 03:05:28;;;;;;;2.33;1.23;;;6.40;99.90;;;;;;5033218;28;20485;-52
2023/04/02 03:07:58;;;;;;;2.40;0.80;;;6.40;99.90;;;;;;5034188;28;20443;-51
2023/04/02 03:10:33;;;;;;;1.90;1.40;;;6.10;99.90;;;;;;5034141;28;21027;-52
2023/04/02 03:13:09;;;;;;;3.73;2.37;;;6.30;99.90;;;;;;5034446;28;20477;-52
2023/04/02 03:15:41;;;;;;;3.33;2.33;;;6.20;99.90;;;;;;5034262;28;20512;-53
2023/04/02 03:18:13;;;;;;;3.03;2.00;;;6.30;99.90;;;;;;5034096;28;20536;-51
2023/04/02 03:20:46;;;;;;;3.00;2.03;;;6.30;99.90;;;;;;5034171;28;20486;-50
2023/04/02 03:23:27;;;;;;;2.13;1.40;;;6.30;99.90;;;;;;5027807;28;20478;-52
2023/04/02 03:25:58;;;;;;;2.17;1.80;;;6.20;99.90;;;;;;5034209;28;20557;-53
2023/04/02 03:28:30;;;;;;;5.37;2.07;;;6.20;99.90;;;;;;5033799;28;20865;-53
2023/04/02 03:31:02;;;;;;;2.80;2.50;;;6.10;99.90;;;;;;5034178;28;20449;-52
2023/04/02 03:33:34;;;;;;;2.23;1.87;;;5.90;99.90;;;;;;5034261;28;20478;-52
2023/04/02 03:36:05;;;;;;;4.60;1.87;;;6.00;99.90;;;;;;5034094;28;20438;-52
2023/04/02 03:38:35;;;;;;;2.30;2.00;;;6.00;99.90;;;;;;5034320;28;20490;-52
2023/04/02 03:41:06;;;;;;;2.80;1.97;;;6.00;99.90;;;;;;5034342;28;20822;-52
2023/04/02 03:43:37;;;;;;;4.57;2.60;;;6.10;99.90;;;;;;5034492;28;20823;-51
2023/04/02 03:46:15;;;;;;;2.40;2.20;;;6.20;99.90;;;;;;5034223;28;20474;-51
2023/04/02 03:48:48;;;;;;;3.67;2.23;;;6.20;99.90;;;;;;5034246;28;20462;-52
2023/04/02 03:51:20;;;;;;;4.23;2.70;;;6.10;99.90;;;;;;5033013;28;20957;-51
2023/04/02 03:53:48;;;;;;;5.07;3.07;;;6.20;99.90;;;;;;5033779;28;20442;-52
2023/04/02 03:56:27;;;;;;;3.73;3.07;;;6.00;99.90;;;;;;5034264;28;20470;-51
2023/04/02 03:59:04;;;;;;;6.57;3.23;;;6.10;99.90;;;;;;5014661;28;20529;-51
2023/04/02 04:01:36;;;;;;;3.50;2.13;;;6.30;99.90;;;;;;5022656;28;20905;-52
2023/04/02 04:04:10;;;;;;;2.57;2.10;;;6.30;99.90;;;;;;5033720;28;20537;-52
2023/04/02 04:06:43;;;;;;;3.10;2.17;;;6.20;99.90;;;;;;5033277;28;20960;-53
2023/04/02 04:09:16;;;;;;;3.00;2.07;;;6.20;99.90;;;;;;5033963;28;20462;-51
2023/04/02 04:11:46;;;;;;;4.43;2.83;;;6.20;99.90;;;;;;5033637;28;20533;-54
2023/04/02 04:14:18;;;;;;;4.10;3.20;;;6.10;99.90;;;;;;5034207;28;20800;-51
2023/04/02 04:16:52;;;;;;;3.90;2.37;;;6.00;99.90;;;;;;5033619;28;20451;-52
2023/04/02 04:19:28;;;;;;;1.80;1.40;;;6.00;99.90;;;;;;5033725;28;20450;-51
2023/04/02 04:22:09;;;;;;;2.60;1.30;;;6.00;99.90;;;;;;5033870;28;20450;-54
2023/04/02 04:24:38;;;;;;;1.40;1.00;;;6.20;99.90;;;;;;5033411;28;21083;-52
2023/04/02 04:27:09;;;;;;;2.13;1.50;;;6.10;99.90;;;;;;5033417;28;20474;-51
2023/04/02 04:29:46;;;;;;;1.73;1.20;;;6.00;99.90;;;;;;5033595;28;20458;-52
2023/04/02 04:32:26;;;;;;;2.37;1.50;;;6.20;99.90;;;;;;5034086;28;20462;-51
2023/04/02 04:34:59;;;;;;;2.00;1.40;;;6.30;99.90;;;;;;5033203;28;20474;-51
2023/04/02 04:37:33;;;;;;;1.90;1.20;;;6.30;99.90;;;;;;5033634;28;20454;-52
2023/04/02 04:40:06;;;;;;;1.67;1.20;;;6.30;99.90;;;;;;5034145;28;20558;-53
2023/04/02 04:42:36;;;;;;;3.00;2.17;;;6.20;99.90;;;;;;5032967;28;20473;-52
2023/04/02 04:45:11;;;;;;;4.47;3.30;;;6.20;99.90;;;;;;5033363;28;20485;-52
2023/04/02 04:47:41;;;;;;;3.00;1.83;;;6.20;99.90;;;;;;5033762;28;20442;-52
2023/04/02 04:50:15;;;;;;;9.97;6.37;;;6.20;99.90;;;;;;5033355;28;20546;-51
2023/04/02 04:52:43;;;;;;;5.60;4.83;;;6.20;99.90;;;;;;5032935;28;20446;-52
2023/04/02 04:55:26;;;;;;;5.60;2.77;;;6.20;99.90;;;;;;5032850;28;20467;-53
2023/04/02 04:57:58;;;;;;;2.33;1.70;;;6.20;99.90;;;;;;5032735;28;20545;-54
2023/04/02 05:00:34;;;;;;;2.10;1.20;;;6.00;99.90;;;;;;5032509;28;20467;-52
2023/04/02 05:03:05;;;;;;;1.57;1.00;;;6.20;99.90;;;;;;5033601;28;20490;-51
2023/04/02 05:05:38;;;;;;;1.20;0.83;;;6.10;99.90;;;;;;5032516;28;20536;-52
2023/04/02 05:08:11;;;;;;;2.17;1.30;;;6.00;99.90;;;;;;5033095;28;20443;-51
2023/04/02 05:10:45;;;;;;;4.00;2.97;;;6.00;99.90;;;;;;5033715;28;20499;-54
2023/04/02 05:13:18;;;;;;;3.10;2.83;;;5.80;99.90;;;;;;5033434;28;20977;-51
2023/04/02 05:15:52;;;;;;;3.60;1.57;;;5.70;99.90;;;;;;5033498;28;20516;-51
2023/04/02 05:18:26;;;;;;;1.27;0.93;;;5.80;99.90;;;;;;5033285;28;20511;-51
2023/04/02 05:20:59;;;;;;;1.50;1.20;;;6.10;99.90;;;;;;5032956;28;20470;-52
2023/04/02 05:23:28;;;;;;;2.17;1.60;;;6.10;99.90;;;;;;5036121;28;20528;-55
2023/04/02 05:26:03;;;;;;;2.13;1.57;;;6.20;99.90;;;;;;5037124;28;20509;-52
2023/04/02 05:28:36;;;;;;;2.20;1.20;;;6.20;99.90;;;;;;5036343;28;21155;-51
2023/04/02 05:31:07;;;;;;;2.00;1.70;;;6.20;99.90;;;;;;5040500;28;20447;-52
2023/04/02 05:33:36;;;;;;;2.80;2.60;;;6.20;99.90;;;;;;5045131;28;20466;-53
2023/04/02 05:36:07;;;;;;;4.70;1.87;;;6.20;99.90;;;;;;5044676;28;20528;-52
2023/04/02 05:38:37;;;;;;;2.50;2.27;;;6.20;99.90;;;;;;5043904;28;20890;-50
2023/04/02 05:41:11;;;;;;;3.20;2.77;;;6.30;99.90;;;;;;5041793;28;20981;-52
2023/04/02 05:43:44;;;;;;;3.10;2.70;;;6.40;99.90;;;;;;5036920;28;20493;-53
2023/04/02 05:46:17;;;;;;;2.50;2.30;;;6.10;99.90;;;;;;5034356;28;20569;-52
2023/04/02 05:48:48;;;;;;;3.87;2.40;;;6.00;99.90;;;;;;5032455;28;20886;-52
2023/04/02 05:51:22;;;;;;;5.30;2.50;;;6.10;99.90;;;;;;5041397;28;20474;-51
2023/04/02 05:53:53;;;;;;;1.90;1.40;;;6.10;99.90;;;;;;5044051;28;20470;-52
2023/04/02 05:56:24;;;;;;;2.53;2.10;;;6.10;99.90;;;;;;5045205;28;20445;-52
2023/04/02 05:58:54;;;;;;;1.73;1.63;;;6.20;99.90;;;;;;5041619;28;20455;-52
2023/04/02 06:01:32;;;;;;;2.50;1.80;;;6.30;99.90;;;;;;5042554;28;20872;-52
2023/04/02 06:04:05;;;;;;;6.20;2.00;;;6.40;99.90;;;;;;5044128;28;20704;-51
2023/04/02 06:06:56;;;;;;;1.43;1.33;;;6.60;99.90;;;;;;5041331;28;20474;-52
2023/04/02 06:09:31;;;;;;;2.07;1.40;;;6.70;99.90;;;;;;5045269;28;20496;-52
2023/04/02 06:12:08;;;;;;;2.77;1.50;;;6.80;99.90;;;;;;5043025;28;20454;-52
2023/04/02 06:14:35;;;;;;;4.73;2.60;;;6.90;99.90;;;;;;5043039;28;20497;-56
2023/04/02 06:17:02;;;;;;;3.13;2.83;;;6.90;99.90;;;;;;5043927;28;20516;-52
2023/04/02 06:19:32;;;;;;;3.97;3.13;;;7.00;99.90;;;;;;5046793;28;20458;-51
2023/04/02 06:22:10;;;;;;;2.67;2.40;;;7.00;99.90;;;;;;5045302;28;20517;-53
2023/04/02 06:24:38;;;;;;;3.40;2.47;;;7.10;99.90;;;;;;5042756;28;20434;-51
2023/04/02 06:27:07;;;;;;;3.83;2.97;;;7.10;99.90;;;;;;5045022;28;20481;-54
2023/04/02 06:29:38;;;;;;;3.03;2.57;;;7.10;99.90;;;;;;5044013;28;20493;-51
2023/04/02 06:32:07;;;;;;;3.10;2.80;;;6.90;99.90;;;;;;5041991;28;20541;-53
2023/04/02 06:34:38;;;;;;;3.40;2.80;;;6.90;99.90;;;;;;5043186;28;20474;-51
2023/04/02 06:37:16;;;;;;;3.90;3.50;;;6.80;99.90;;;;;;5043721;28;20436;-52
2023/04/02 06:39:43;;;;;;;4.87;4.17;;;6.80;99.90;;;;;;5041250;28;20469;-52
2023/04/02 06:42:13;;;;;;;4.83;3.77;;;6.90;99.90;;;;;;5043169;28;20661;-52
2023/04/02 06:44:41;;;;;;;5.80;2.80;;;7.00;99.90;;;;;;5043740;28;20495;-54
2023/04/02 06:47:17;;;;;;;3.10;2.30;;;7.10;99.90;;;;;;5041258;28;20561;-52
2023/04/02 06:49:47;;;;;;;4.10;3.70;;;7.10;99.90;;;;;;5043341;28;20462;-52
2023/04/02 06:52:21;;;;;;;3.07;2.60;;;7.10;99.90;;;;;;5039678;28;20537;-53
2023/04/02 06:54:48;;;;;;;4.77;3.40;;;6.90;99.90;;;;;;5043178;28;20470;-52
2023/04/02 06:57:15;;;;;;;2.97;2.67;;;6.80;99.90;;;;;;5042868;28;20482;-53
2023/04/02 06:59:42;;;;;;;4.83;4.33;;;6.90;99.90;;;;;;5041407;28;21042;-52
2023/04/02 07:02:23;;;;;;;3.30;3.00;;;6.90;99.90;;;;;;5041327;28;20474;-54
2023/04/02 07:04:50;;;;;;;3.30;2.30;;;7.00;99.90;;;;;;5042409;28;20481;-51
2023/04/02 07:07:18;;;;;;;3.60;2.80;;;7.10;99.90;;;;;;5043469;28;20496;-51
2023/04/02 07:09:45;;;;;;;5.00;3.77;;;7.20;99.90;;;;;;5042613;28;20457;-54
2023/04/02 07:12:13;;;;;;;3.67;3.37;;;7.00;99.90;;;;;;5037110;28;20453;-53
2023/04/02 07:14:40;;;;;;;2.83;2.50;;;7.00;99.90;;;;;;5044401;28;20469;-52
2023/04/02 07:17:06;;;;;;;4.40;3.20;;;7.00;99.90;;;;;;5044746;28;20513;-52
2023/04/02 07:19:33;;;;;;;5.73;3.60;;;7.00;99.90;;;;;;5042420;28;20549;-51
2023/04/02 07:22:00;;;;;;;5.43;3.17;;;6.90;99.90;;;;;;5028857;28;20474;-52
2023/04/02 07:24:29;;;;;;;2.80;2.60;;;7.10;99.90;;;;;;5033446;28;21033;-51
2023/04/02 07:26:56;;;;;;;3.80;3.50;;;7.20;99.90;;;;;;5042088;28;20558;-51
2023/04/02 07:29:22;;;;;;;2.97;2.60;;;7.10;99.90;;;;;;5041833;28;20516;-52
2023/04/02 07:31:51;;;;;;;3.40;3.10;;;7.10;99.90;;;;;;5031517;28;20442;-51
2023/04/02 07:34:18;;;;;;;2.60;2.40;;;7.10;99.90;;;;;;5031139;28;20524;-56
2023/04/02 07:36:45;;;;;;;3.53;2.30;;;7.20;99.90;;;;;;5023840;28;20964;-52
2023/04/02 07:39:12;;;;;;;3.60;3.10;;;7.20;99.90;;;;;;5034170;28;20467;-52
2023/04/02 07:41:54;;;;;;;3.70;3.27;;;7.30;99.90;;;;;;5028752;28;21013;-52
2023/04/02 07:44:21;;;;;;;4.10;2.50;;;7.40;99.90;;;;;;5021824;28;20443;-52
2023/04/02 07:46:48;;;;;;;2.80;2.60;;;7.50;99.90;;;;;;5027722;28;20593;-51
2023/04/02 07:49:15;;;;;;;2.27;2.07;;;7.50;99.90;;;;;;5030359;28;21040;-54
2023/04/02 07:51:42;;;;;;;3.40;3.10;;;7.60;99.90;;;;;;5032929;28;20447;-55
2023/04/02 07:54:10;;;;;;;2.90;2.30;;;7.60;99.90;;;;;;5028070;28;20524;-53
2023/04/02 07:56:37;;;;;;;2.60;1.47;;;7.70;99.90;;;;;;5027727;28;20470;-53
2023/04/02 07:59:06;;;;;;;2.67;2.20;;;7.90;99.90;;;;;;5027895;28;20463;-51
2023/04/02 08:01:34;;;;;;;2.33;1.97;;;8.00;99.90;;;;;;5028383;28;20540;-54
2023/04/02 08:04:03;;;;;;;2.53;1.97;;;8.00;99.90;;;;;;5028388;28;20446;-52
2023/04/02 08:06:30;;;;;;;2.27;1.40;;;8.10;99.90;;;;;;5027150;28;21343;-53
2023/04/02 08:08:57;;;;;;;2.97;1.40;;;8.10;99.90;;;;;;5029149;28;21044;-52
2023/04/02 08:11:24;;;;;;;9.87;4.10;;;8.20;99.90;;;;;;5027865;28;20949;-54
2023/04/02 08:13:51;;;;;;;4.80;2.77;;;8.20;99.90;;;;;;5028192;28;20797;-51
2023/04/02 08:16:21;;;;;;;2.37;1.80;;;8.30;99.90;;;;;;5027691;28;20526;-54
2023/04/02 08:18:48;;;;;;;14.43;11.47;;;8.30;99.90;;;;;;5028220;28;20589;-52
2023/04/02 08:21:15;;;;;;;6.70;5.23;;;8.40;99.90;;;;;;5026852;28;20478;-53
2023/04/02 08:23:42;;;;;;;3.53;2.77;;;8.40;99.90;;;;;;5024642;28;20443;-52
2023/04/02 08:26:10;;;;;;;3.73;2.77;;;8.40;99.90;;;;;;5024824;28;20593;-52
2023/04/02 08:28:37;;;;;;;2.30;2.10;;;8.40;99.90;;;;;;5024066;28;20467;-53
2023/04/02 08:31:04;;;;;;;3.23;1.67;;;8.20;99.90;;;;;;5031320;28;20485;-51
2023/04/02 08:33:32;;;;;;;2.27;2.00;;;8.10;99.90;;;;;;5029247;28;20443;-51
2023/04/02 08:35:59;;;;;;;2.30;1.47;;;8.20;99.90;;;;;;5023563;28;20794;-53
2023/04/02 08:38:26;;;;;;;2.47;2.27;;;8.30;99.90;;;;;;5028222;28;20560;-53
2023/04/02 08:40:59;;;;;;;2.37;1.80;;;8.40;99.90;;;;;;5027923;28;20485;-51
2023/04/02 08:44:00;;;;;;;2.77;2.27;;;8.50;99.90;;;;;;5028353;28;20443;-53
2023/04/02 08:46:33;;;;;;;2.77;1.90;;;8.60;99.90;;;;;;5021690;28;20507;-52
2023/04/02 08:49:08;;;;;;;1.73;1.13;;;8.60;99.90;;;;;;5027549;28;20466;-54
2023/04/02 08:51:37;;;;;;;1.73;1.20;;;8.60;99.90;;;;;;5027440;28;20461;-51
2023/04/02 08:54:12;;;;;;;3.00;1.30;;;8.60;99.90;;;;;;5027498;28;20447;-52
2023/04/02 08:56:43;;;;;;;3.40;1.40;;;8.70;99.90;;;;;;5026852;28;20496;-50
2023/04/02 08:59:20;;;;;;;2.00;1.50;;;8.90;99.90;;;;;;5026690;28;20534;-51
2023/04/02 09:01:55;;;;;;;3.63;1.70;;;9.00;99.90;;;;;;5031000;28;20541;-54
2023/04/02 09:04:25;;;;;;;1.50;1.10;;;9.10;99.90;;;;;;5012153;28;20538;-54
2023/04/02 09:06:54;;;;;;;1.43;1.07;;;9.00;99.90;;;;;;5026463;28;20486;-51
2023/04/02 09:09:23;;;;;;;1.27;1.13;;;9.00;99.90;;;;;;5030751;28;20985;-51
2023/04/02 09:11:53;;;;;;;2.03;1.10;;;9.00;99.90;;;;;;5031042;28;20593;-51
2023/04/02 09:14:24;;;;;;;2.20;1.83;;;9.10;99.90;;;;;;5031417;28;20481;-51
2023/04/02 09:16:53;;;;;;;1.40;1.13;;;9.10;99.90;;;;;;5031285;28;20463;-52
2023/04/02 09:19:26;;;;;;;1.60;1.20;;;9.20;99.90;;;;;;5030153;28;20549;-54
2023/04/02 09:22:00;;;;;;;1.47;1.10;;;9.20;99.90;;;;;;5030741;28;20435;-51
2023/04/02 09:24:27;;;;;;;2.17;1.37;;;9.10;99.90;;;;;;5032240;28;20452;-52
2023/04/02 09:26:54;;;;;;;1.80;1.63;;;9.10;99.90;;;;;;5032782;28;21048;-54
2023/04/02 09:29:44;;;;;;;2.67;1.53;;;9.20;99.90;;;;;;5033105;28;20458;-52
2023/04/02 09:32:27;;;;;;;1.53;1.40;;;9.40;99.90;;;;;;5021712;28;20813;-52
2023/04/02 09:35:08;;;;;;;1.47;1.00;;;9.40;99.90;;;;;;5032722;28;20451;-52
2023/04/02 09:37:36;;;;;;;1.33;1.00;;;9.40;99.90;;;;;;5033793;28;20446;-52
2023/04/02 09:40:25;;;;;;;4.27;3.07;;;9.40;99.90;;;;;;5032859;28;21045;-53
2023/04/02 09:43:11;;;;;;;1.93;1.73;;;9.50;99.90;;;;;;5027537;28;20807;-51
2023/04/02 09:45:39;;;;;;;2.00;1.53;;;9.50;99.90;;;;;;5033538;28;20453;-51
2023/04/02 09:48:22;;;;;;;1.87;1.50;;;9.60;99.90;;;;;;5032911;28;20476;-51
2023/04/02 09:51:03;;;;;;;1.50;1.20;;;9.70;99.90;;;;;;5029501;28;20474;-52
2023/04/02 09:53:33;;;;;;;2.20;1.33;;;9.70;99.90;;;;;;5013787;28;20431;-51
2023/04/02 09:56:12;;;;;;;1.60;0.93;;;9.80;99.90;;;;;;5013559;28;20531;-51
2023/04/02 09:58:39;;;;;;;1.30;0.77;;;9.80;99.90;;;;;;5032045;28;20471;-51
2023/04/02 10:01:19;;;;;;;1.97;1.63;;;9.70;99.90;;;;;;5033085;28;20447;-51
2023/04/02 10:03:46;;;;;;;1.20;0.80;;;9.80;99.90;;;;;;5033012;28;20454;-51
2023/04/02 10:06:15;;;;;;;1.40;1.10;;;9.90;99.90;;;;;;5031637;28;21015;-52
2023/04/02 10:08:44;;;;;;;1.20;1.00;;;9.90;99.90;;;;;;5032108;28;20915;-53
2023/04/02 10:11:14;;;;;;;1.57;1.10;;;9.90;99.90;;;;;;5032329;28;20486;-49
2023/04/02 10:13:51;;;;;;;1.17;0.60;;;10.00;99.90;;;;;;5032518;28;20482;-48
2023/04/02 10:16:22;;;;;;;1.73;1.07;;;10.00;99.90;;;;;;5027905;28;20489;-50
2023/04/02 10:18:52;;;;;;;1.50;0.90;;;10.00;99.90;;;;;;5028110;28;20498;-50
2023/04/02 10:21:26;;;;;;;1.93;0.80;;;10.10;99.90;;;;;;5029048;28;20526;-49
2023/04/02 10:23:53;;;;;;;1.67;1.30;;;10.30;99.90;;;;;;5029512;28;20462;-53
2023/04/02 10:26:35;;;;;;;1.60;1.20;;;10.50;99.90;;;;;;5029851;28;20478;-52
2023/04/02 10:29:22;;;;;;;1.47;0.90;;;10.50;99.90;;;;;;5026358;28;20495;-50
2023/04/02 10:31:59;;;;;;;2.97;1.73;;;10.90;99.90;;;;;;5028824;28;20447;-50
2023/04/02 10:34:39;;;;;;;1.60;1.20;;;10.70;99.90;;;;;;5027506;28;20527;-50
2023/04/02 10:37:26;;;;;;;1.67;1.27;;;10.70;99.90;;;;;;5027237;28;20945;-49
2023/04/02 10:39:57;;;;;;;1.10;0.77;;;10.60;99.90;;;;;;5035533;28;20491;-52
2023/04/02 10:42:32;;;;;;;1.60;1.20;;;10.60;99.90;;;;;;5034370;28;20442;-50
2023/04/02 10:45:04;;;;;;;2.13;0.87;;;10.70;99.90;;;;;;5032874;28;20522;-50
2023/04/02 10:47:40;;;;;;;1.47;0.73;;;10.70;99.90;;;;;;5032339;28;20479;-50
2023/04/02 10:50:26;;;;;;;2.43;0.97;;;10.80;99.90;;;;;;5032516;28;20555;-50
2023/04/02 10:53:01;;;;;;;1.97;1.13;;;11.20;99.90;;;;;;5038452;28;20650;-50
2023/04/02 10:55:30;;;;;;;1.73;1.23;;;11.20;99.90;;;;;;5036886;28;20446;-51
2023/04/02 10:58:04;;;;;;;1.37;0.80;;;11.00;99.90;;;;;;5039352;28;20485;-49
2023/04/02 11:00:34;;;;;;;3.20;1.10;;;11.00;99.90;;;;;;5039091;28;20476;-52
2023/04/02 11:03:08;;;;;;;1.47;1.03;;;11.00;99.90;;;;;;5035661;28;20526;-51
2023/04/02 11:05:42;;;;;;;3.40;2.70;;;11.00;99.90;;;;;;5036730;28;20537;-51
2023/04/02 11:08:18;;;;;;;7.43;1.73;;;11.20;99.90;;;;;;5033511;28;20894;-50
2023/04/02 11:10:49;;;;;;;1.20;0.90;;;11.40;99.90;;;;;;5034244;28;20981;-51
2023/04/02 11:13:22;;;;;;;1.30;0.80;;;11.70;99.90;;;;;;5033383;28;20508;-52
2023/04/02 11:15:49;;;;;;;2.90;1.03;;;11.50;99.90;;;;;;5035053;28;21010;-50
2023/04/02 11:18:28;;;;;;;1.43;1.00;;;11.50;99.90;;;;;;5027146;28;20881;-50
2023/04/02 11:21:00;;;;;;;1.10;0.80;;;11.50;99.90;;;;;;5025789;28;20913;-51
2023/04/02 11:23:32;;;;;;;1.10;0.83;;;11.50;99.90;;;;;;5031133;28;20479;-49
2023/04/02 11:26:32;;;;;;;1.30;1.00;;;11.30;99.90;;;;;;5036399;28;20530;-52
2023/04/02 11:29:13;;;;;;;1.30;0.90;;;11.20;99.90;;;;;;5038280;28;20463;-52
2023/04/02 11:31:41;;;;;;;1.73;1.20;;;11.20;99.90;;;;;;5024605;28;20471;-53
2023/04/02 11:34:13;;;;;;;1.10;0.70;;;11.50;99.90;;;;;;5031552;28;20865;-52
2023/04/02 11:37:07;;;;;;;1.40;0.90;;;11.60;99.90;;;;;;5032075;28;20467;-52
2023/04/02 11:39:57;;;;;;;1.23;1.07;;;11.30;99.90;;;;;;5029283;28;20526;-52
2023/04/02 11:42:32;;;;;;;1.70;0.90;;;11.20;99.90;;;;;;5027209;28;20851;-52
2023/04/02 11:45:21;;;;;;;1.40;0.93;;;10.90;99.90;;;;;;5031349;28;20527;-52
2023/04/02 11:48:21;;;;;;;1.47;0.63;;;10.90;99.90;;;;;;5030966;28;20503;-50
2023/04/02 11:50:48;;;;;;;1.53;1.07;;;11.00;99.90;;;;;;5030911;28;20529;-50
2023/04/02 11:53:22;;;;;;;1.47;0.90;;;11.00;99.90;;;;;;5031103;28;20885;-50
2023/04/02 11:56:09;;;;;;;1.07;0.60;;;11.00;99.90;;;;;;5010998;28;20440;-52
2023/04/02 11:58:51;;;;;;;1.13;0.80;;;10.90;99.90;;;;;;5023719;28;20550;-50
2023/04/02 12:02:03;;;;;;;2.80;1.40;;;11.00;99.90;;;;;;5030890;28;20479;-50
2023/04/02 12:05:03;;;;;;;1.53;0.90;;;11.10;99.90;;;;;;5031040;28;20545;-50
2023/04/02 12:07:56;;;;;;;1.33;0.57;;;11.20;99.90;;;;;;5030975;28;20512;-51
2023/04/02 12:10:26;;;;;;;2.17;1.37;;;11.10;99.90;;;;;;5023936;28;20478;-50
2023/04/02 12:12:55;;;;;;;1.40;0.70;;;11.20;99.90;;;;;;5029940;28;20470;-50
2023/04/02 12:15:43;;;;;;;1.20;0.60;;;11.30;99.90;;;;;;5029639;28;20820;-50
2023/04/02 12:18:15;;;;;;;1.00;0.70;;;11.50;99.90;;;;;;5025527;28;20450;-49
2023/04/02 12:20:47;;;;;;;1.10;0.83;;;11.60;99.90;;;;;;5030696;28;20440;-51
2023/04/02 12:23:21;;;;;;;1.00;0.77;;;11.50;99.90;;;;;;5027560;28;20807;-50
2023/04/02 12:25:57;;;;;;;1.00;0.60;;;11.70;99.90;;;;;;5028826;28;20456;-50
2023/04/02 12:28:27;;;;;;;1.67;0.90;;;11.60;99.90;;;;;;5029764;28;20517;-50
2023/04/02 12:31:04;;;;;;;1.87;0.70;;;11.60;99.90;;;;;;5029164;28;20452;-50
2023/04/02 12:33:36;;;;;;;1.50;0.90;;;11.60;99.90;;;;;;5031132;28;20536;-49
2023/04/02 12:36:05;;;;;;;2.57;1.23;;;11.50;99.90;;;;;;5030230;28;20473;-50
2023/04/02 12:38:36;;;;;;;1.70;1.10;;;11.50;99.90;;;;;;5027889;28;20466;-51
2023/04/02 12:41:05;;;;;;;1.50;0.60;;;11.30;99.90;;;;;;5030105;28;20447;-50
2023/04/02 12:43:36;;;;;;;1.17;0.70;;;11.40;99.90;;;;;;5027626;28;20858;-50
2023/04/02 12:46:06;;;;;;;0.90;0.57;;;11.30;99.90;;;;;;5030377;28;20436;-50
2023/04/02 12:48:34;;;;;;;1.10;0.60;;;11.30;99.90;;;;;;5027306;28;20541;-50
2023/04/02 12:51:02;;;;;;;1.53;0.83;;;11.30;99.90;;;;;;5030104;28;20820;-51
2023/04/02 12:53:35;;;;;;;1.40;0.87;;;11.30;99.90;;;;;;5030381;28;20476;-51
2023/04/02 12:56:03;;;;;;;1.10;0.60;;;11.30;99.90;;;;;;5030159;28;20468;-53
2023/04/02 12:58:35;;;;;;;1.20;0.63;;;11.30;99.90;;;;;;5027373;28;20519;-50
2023/04/02 13:01:15;;;;;;;1.30;0.80;;;11.30;99.90;;;;;;5030015;28;20441;-50
2023/04/02 13:03:42;;;;;;;1.00;0.60;;;11.30;99.90;;;;;;5028382;28;20461;-55
2023/04/02 13:06:22;;;;;;;1.13;0.60;;;11.30;99.90;;;;;;5028472;28;21011;-51
2023/04/02 13:08:49;;;;;;;1.00;0.60;;;11.30;99.90;;;;;;5028997;28;20981;-50
2023/04/02 13:11:17;;;;;;;1.87;0.80;;;11.30;99.90;;;;;;5029275;28;20440;-50
2023/04/02 13:13:47;;;;;;;4.53;0.90;;;11.40;99.90;;;;;;5029340;28;20436;-50
2023/04/02 13:16:27;;;;;;;1.30;0.80;;;11.40;99.90;;;;;;5027291;28;20475;-52
2023/04/02 13:19:24;;;;;;;1.20;0.70;;;11.40;99.90;;;;;;5027311;28;20475;-51
2023/04/02 13:21:52;;;;;;;1.07;0.53;;;11.40;99.90;;;;;;5026709;28;20436;-51
2023/04/02 13:24:23;;;;;;;1.40;0.60;;;11.50;99.90;;;;;;5029406;28;20443;-50
2023/04/02 13:26:51;;;;;;;1.10;0.80;;;11.40;99.90;;;;;;5029818;28;20535;-50